Terminal Aerodrome Forecast
Issued by NWS Charleston, WV

Current Version | Previous Version | Graphics & Text | Print | Product List | Glossary On
Versions: 1 2 3 4 5 6 7 8 9 10 11 12 13 14 15 16 17 18 19 20 21 22
794
FTUS41 KRLX 120843 AAA
TAFPKB
TAF AMD
KPKB 120843Z 1209/1306 27010G17KT P6SM OVC045
     FM121200 27011G20KT 6SM -SHSN OVC020
     FM121700 29012G24KT P6SM BKN035
     FM122300 29010G22KT 5SM -SHSN BKN020
     FM130300 29009G20KT P6SM BKN035=

USA.gov is the U.S. government's official web portal to all federal, state and local government web resources and services.